createdAt,value
2022-12-15T00:02:23.666Z,408.48
2022-12-15T00:05:09.559Z,397.90
2022-12-15T00:07:56.890Z,375.90
2022-12-15T00:10:42.932Z,309.33
2022-12-15T00:13:30.357Z,369.92
2022-12-15T00:16:17.094Z,401.63
2022-12-15T00:19:03.199Z,415.33
2022-12-15T00:21:49.798Z,384.27
2022-12-15T00:24:37.487Z,400.67
2022-12-15T00:27:23.914Z,418.70
2022-12-15T00:30:09.993Z,435.98
2022-12-15T00:32:56.113Z,437.85
2022-12-15T00:35:41.780Z,384.77
2022-12-15T00:38:28.575Z,418.75
2022-12-15T00:40:59.987Z,399.17
2022-12-15T00:43:29.075Z,428.75
2022-12-15T00:46:15.954Z,453.00
2022-12-15T00:48:44.627Z,388.85
2022-12-15T00:51:12.200Z,469.35
2022-12-15T00:53:58.879Z,442.70
2022-12-15T00:56:46.019Z,454.02
2022-12-15T00:59:33.521Z,413.48
2022-12-15T01:02:19.571Z,428.38
2022-12-15T01:05:05.927Z,457.48
2022-12-15T01:07:51.995Z,420.75
2022-12-15T01:10:38.433Z,364.13
2022-12-15T01:13:25.482Z,394.67
2022-12-15T01:16:11.381Z,429.80
2022-12-15T01:18:57.498Z,452.65
2022-12-15T01:21:26.048Z,435.48
2022-12-15T01:23:54.609Z,428.38
2022-12-15T01:26:23.069Z,429.23
2022-12-15T01:28:52.843Z,420.33
2022-12-15T01:31:21.276Z,412.90
2022-12-15T01:33:49.742Z,459.88
2022-12-15T01:36:18.176Z,433.92
2022-12-15T01:38:52.282Z,438.67
2022-12-15T01:41:21.566Z,429.35
2022-12-15T01:43:50.055Z,422.35
2022-12-15T01:46:21.391Z,481.23
2022-12-15T01:48:53.515Z,437.88
2022-12-15T01:51:26.292Z,429.23
2022-12-15T01:53:59.187Z,397.63
2022-12-15T01:56:32.553Z,420.67
2022-12-15T01:59:07.648Z,345.75
2022-12-15T02:01:37.782Z,387.50
2022-12-15T02:04:06.281Z,405.88
2022-12-15T02:06:34.901Z,433.20
2022-12-15T02:09:03.580Z,409.92
2022-12-15T02:11:42.781Z,463.33
2022-12-15T02:14:12.843Z,447.77
2022-12-15T02:16:53.816Z,404.60
2022-12-15T02:20:01.826Z,441.58
2022-12-15T02:22:41.462Z,371.63
2022-12-15T02:25:31.227Z,413.98
2022-12-15T02:28:04.034Z,424.38
2022-12-15T02:30:45.857Z,469.35
2022-12-15T02:33:21.527Z,410.30
2022-12-15T02:35:57.400Z,426.98
2022-12-15T02:38:35.141Z,445.02
2022-12-15T02:41:05.639Z,414.75
2022-12-15T02:43:37.190Z,424.20
2022-12-15T02:46:16.745Z,453.77
2022-12-15T02:48:54.320Z,440.05
2022-12-15T02:51:36.006Z,470.67
2022-12-15T02:54:33.236Z,486.23
2022-12-15T02:57:06.061Z,450.23
2022-12-15T02:59:39.405Z,443.85
2022-12-15T03:02:10.657Z,484.80
2022-12-15T03:04:39.282Z,442.25
2022-12-15T03:07:10.883Z,435.40
2022-12-15T03:09:39.411Z,458.10
2022-12-15T03:12:08.384Z,453.02
2022-12-15T03:14:36.782Z,424.50
2022-12-15T03:17:07.499Z,366.63
2022-12-15T03:19:37.420Z,365.15
2022-12-15T03:22:06.091Z,373.90
2022-12-15T03:24:34.420Z,381.92
2022-12-15T03:27:03.910Z,399.90
2022-12-15T03:29:32.834Z,414.63
2022-12-15T03:32:01.397Z,389.27
2022-12-15T03:34:29.883Z,364.55
2022-12-15T03:36:59.802Z,375.90
2022-12-15T03:39:28.154Z,383.60
2022-12-15T03:41:56.768Z,354.75
2022-12-15T03:44:25.329Z,367.10
2022-12-15T03:46:56.189Z,370.80
2022-12-15T03:49:28.613Z,287.10
2022-12-15T03:51:56.996Z,340.63
2022-12-15T03:54:26.905Z,370.98
2022-12-15T03:56:55.440Z,378.77
2022-12-15T03:59:23.963Z,390.02
2022-12-15T04:01:52.495Z,381.13
2022-12-15T04:04:21.076Z,399.05
2022-12-15T04:06:49.554Z,408.98
2022-12-15T04:09:19.455Z,400.67
2022-12-15T04:11:49.350Z,431.42
2022-12-15T04:14:17.890Z,372.05
2022-12-15T04:16:46.347Z,393.98
2022-12-15T04:19:32.039Z,372.33
2022-12-15T04:22:02.556Z,442.55
2022-12-15T04:24:48.621Z,423.88
2022-12-15T04:27:35.932Z,356.10
2022-12-15T04:30:22.340Z,388.27
2022-12-15T04:33:08.682Z,339.65
2022-12-15T04:35:54.662Z,347.92
2022-12-15T04:38:50.080Z,431.83
2022-12-15T04:41:38.489Z,420.92
2022-12-15T04:44:26.147Z,386.63
2022-12-15T04:47:12.177Z,345.10
2022-12-15T04:49:58.202Z,346.70
2022-12-15T04:52:44.187Z,374.13
2022-12-15T04:55:30.159Z,394.02
2022-12-15T04:58:16.116Z,376.85
2022-12-15T05:01:03.603Z,387.60
2022-12-15T05:03:49.657Z,369.85
2022-12-15T05:06:35.806Z,355.70
2022-12-15T05:09:21.674Z,308.05
2022-12-15T05:12:07.489Z,356.42
2022-12-15T05:14:53.637Z,457.58
2022-12-15T05:17:41.814Z,346.23
2022-12-15T05:20:28.365Z,310.65
2022-12-15T05:23:15.021Z,321.65
2022-12-15T05:26:01.548Z,297.88
2022-12-15T05:28:47.771Z,269.08
2022-12-15T05:31:33.706Z,292.60
2022-12-15T05:34:05.695Z,307.73
2022-12-15T05:36:34.496Z,351.73
2022-12-15T05:39:03.984Z,336.20
2022-12-15T05:41:32.620Z,285.40
2022-12-15T05:44:01.736Z,324.40
2022-12-15T05:46:30.145Z,328.02
2022-12-15T05:48:58.709Z,370.58
2022-12-15T05:51:28.579Z,343.35
2022-12-15T05:53:56.997Z,353.48
2022-12-15T05:56:26.411Z,267.90
2022-12-15T05:58:55.188Z,333.90
2022-12-15T06:01:24.813Z,386.48
2022-12-15T06:03:53.437Z,357.25
2022-12-15T06:06:22.343Z,328.42
2022-12-15T06:08:52.438Z,315.85
2022-12-15T06:11:22.330Z,359.23
2022-12-15T06:13:51.213Z,377.30
2022-12-15T06:16:21.567Z,330.85
2022-12-15T06:18:52.354Z,334.65
2022-12-15T06:21:24.639Z,511.52
2022-12-15T06:23:56.282Z,377.15
2022-12-15T06:26:26.594Z,399.30
2022-12-15T06:28:57.258Z,412.88
2022-12-15T06:31:26.600Z,397.98
2022-12-15T06:34:01.313Z,414.65
2022-12-15T06:36:30.807Z,433.50
2022-12-15T06:39:02.621Z,430.58
2022-12-15T06:41:31.514Z,431.55
2022-12-15T06:44:00.465Z,484.52
2022-12-15T06:46:30.193Z,426.88
2022-12-15T06:48:59.290Z,465.65
2022-12-15T06:51:27.830Z,428.67
2022-12-15T06:53:56.421Z,425.75
2022-12-15T06:56:33.216Z,401.67
2022-12-15T06:59:03.503Z,426.58
2022-12-15T07:01:32.973Z,395.98
2022-12-15T07:04:02.877Z,311.48
2022-12-15T07:06:36.607Z,333.02
2022-12-15T07:09:07.300Z,406.20
2022-12-15T07:11:37.441Z,428.52
2022-12-15T07:14:06.038Z,365.38
2022-12-15T07:16:34.610Z,416.85
2022-12-15T07:19:03.447Z,394.92
2022-12-15T07:21:31.868Z,443.77
2022-12-15T07:24:01.383Z,400.98
2022-12-15T07:26:30.610Z,414.98
2022-12-15T07:29:00.456Z,401.17
2022-12-15T07:31:28.860Z,419.08
2022-12-15T07:33:58.925Z,409.23
2022-12-15T07:36:27.492Z,387.15
2022-12-15T07:39:00.860Z,412.83
2022-12-15T07:41:29.961Z,355.58
2022-12-15T07:44:00.294Z,326.52
2022-12-15T07:46:29.136Z,329.70
2022-12-15T07:48:57.735Z,340.85
2022-12-15T07:51:26.093Z,386.42
2022-12-15T07:53:54.523Z,423.75
2022-12-15T07:56:22.880Z,337.50
2022-12-15T07:58:51.925Z,388.42
2022-12-15T08:01:21.769Z,424.35
2022-12-15T08:03:50.563Z,330.25
2022-12-15T08:06:19.166Z,317.38
2022-12-15T08:08:50.324Z,325.48
2022-12-15T08:11:21.041Z,333.27
2022-12-15T08:14:09.133Z,325.85
2022-12-15T08:16:39.807Z,294.30
2022-12-15T08:19:10.242Z,333.35
2022-12-15T08:21:40.969Z,277.85
2022-12-15T08:24:09.821Z,338.13
2022-12-15T08:26:39.142Z,440.27
2022-12-15T08:29:48.942Z,348.67
2022-12-15T08:31:59.170Z,367.75
2022-12-15T08:34:27.653Z,298.30
2022-12-15T08:36:56.565Z,386.55
2022-12-15T08:39:25.009Z,346.38
2022-12-15T08:41:53.374Z,346.35
2022-12-15T08:44:22.802Z,425.67
2022-12-15T08:46:51.363Z,331.70
2022-12-15T08:49:22.306Z,365.45
2022-12-15T08:51:51.553Z,376.00
2022-12-15T08:54:21.143Z,360.20
2022-12-15T08:56:49.765Z,354.85
2022-12-15T08:59:19.384Z,382.35
2022-12-15T09:01:48.411Z,382.05
2022-12-15T09:04:17.446Z,358.50
2022-12-15T09:06:50.779Z,370.83
2022-12-15T09:09:20.291Z,338.00
2022-12-15T09:11:48.823Z,342.92
2022-12-15T09:14:17.724Z,345.85
2022-12-15T09:16:46.231Z,369.30
2022-12-15T09:19:19.362Z,310.17
2022-12-15T09:21:49.525Z,450.85
2022-12-15T09:24:28.710Z,346.15
2022-12-15T09:27:03.221Z,373.23
2022-12-15T09:29:32.212Z,366.92
2022-12-15T09:32:00.592Z,394.75
2022-12-15T09:34:29.081Z,368.02
2022-12-15T09:36:59.013Z,309.35
2022-12-15T09:39:27.666Z,362.95
2022-12-15T09:41:57.131Z,397.33
2022-12-15T09:44:27.063Z,362.25
2022-12-15T09:47:15.937Z,370.15
2022-12-15T09:49:52.701Z,370.98
2022-12-15T09:52:26.218Z,385.65
2022-12-15T09:54:55.238Z,381.52
2022-12-15T09:57:34.482Z,383.67
2022-12-15T10:00:21.639Z,345.55
2022-12-15T10:03:18.717Z,365.02
2022-12-15T10:06:24.882Z,387.98
2022-12-15T10:08:59.123Z,377.02
2022-12-15T10:11:41.952Z,362.13
2022-12-15T10:14:20.487Z,392.85
2022-12-15T10:16:55.315Z,390.30
2022-12-15T10:19:31.047Z,377.45
2022-12-15T10:22:00.027Z,389.60
2022-12-15T10:27:31.286Z,360.58
2022-12-15T10:30:02.983Z,362.60
2022-12-15T10:33:00.632Z,371.10
2022-12-15T10:35:32.783Z,295.85
2022-12-15T10:38:06.588Z,292.65
2022-12-15T10:40:50.433Z,354.02
2022-12-15T10:43:28.294Z,253.65
2022-12-15T10:46:06.200Z,283.40
2022-12-15T10:48:34.628Z,334.90
2022-12-15T10:51:23.249Z,311.20
2022-12-15T10:53:54.140Z,368.80
2022-12-15T10:56:32.727Z,374.80
2022-12-15T10:59:04.711Z,355.92
2022-12-15T11:01:35.914Z,319.27
2022-12-15T11:04:04.775Z,319.10
2022-12-15T11:06:36.768Z,362.25
2022-12-15T11:09:27.250Z,370.60
2022-12-15T11:12:16.193Z,393.58
2022-12-15T11:14:47.615Z,390.98
2022-12-15T11:17:18.127Z,370.95
2022-12-15T11:19:56.771Z,395.05
2022-12-15T11:22:36.372Z,338.83
2022-12-15T11:25:10.638Z,352.48
2022-12-15T11:27:43.465Z,350.98
2022-12-15T11:30:15.646Z,311.25
2022-12-15T11:32:45.806Z,313.25
2022-12-15T11:35:20.684Z,379.85
2022-12-15T11:37:52.468Z,351.83
2022-12-15T11:40:35.815Z,420.02
2022-12-15T11:43:31.104Z,306.92
2022-12-15T11:46:21.694Z,306.17
2022-12-15T11:49:15.000Z,318.42
2022-12-15T11:51:45.897Z,312.17
2022-12-15T11:54:21.958Z,314.58
2022-12-15T11:56:54.255Z,321.05
2022-12-15T12:00:03.379Z,317.63
2022-12-15T12:02:56.571Z,337.55
2022-12-15T12:05:54.700Z,381.85
2022-12-15T12:08:37.572Z,327.80
2022-12-15T12:11:10.664Z,337.63
2022-12-15T12:13:46.741Z,340.45
2022-12-15T12:16:31.582Z,297.58
2022-12-15T12:19:04.876Z,318.30
2022-12-15T12:21:50.957Z,336.83
2022-12-15T12:24:37.275Z,334.50
2022-12-15T12:27:11.617Z,328.00
2022-12-15T12:29:45.518Z,383.50
2022-12-15T12:32:27.904Z,320.02
2022-12-15T12:35:31.279Z,291.70
2022-12-15T12:38:05.768Z,422.52
2022-12-15T12:40:57.459Z,382.75
2022-12-15T12:43:35.513Z,410.17
2022-12-15T12:46:13.582Z,354.95
2022-12-15T12:48:54.010Z,342.02
2022-12-15T12:51:29.632Z,373.02
2022-12-15T12:54:00.276Z,336.88
2022-12-15T12:59:40.064Z,309.52
2022-12-15T13:02:50.416Z,363.33
2022-12-15T13:05:34.735Z,362.92
2022-12-15T13:08:39.968Z,393.47
2022-12-15T13:11:44.487Z,350.77
2022-12-15T13:14:33.174Z,417.25
2022-12-15T13:17:26.648Z,352.50
2022-12-15T13:20:51.305Z,354.38
2022-12-15T13:23:55.577Z,292.77
2022-12-15T13:26:27.436Z,325.73
2022-12-15T13:28:59.864Z,392.10
2022-12-15T13:31:34.517Z,347.60
2022-12-15T13:34:13.866Z,406.98
2022-12-15T13:36:55.159Z,425.67
2022-12-15T13:40:06.410Z,352.60
2022-12-15T13:42:52.876Z,404.30
2022-12-15T13:45:40.775Z,387.67
2022-12-15T13:48:39.476Z,380.63
2022-12-15T13:51:27.962Z,381.10
2022-12-15T13:53:59.920Z,402.42
2022-12-15T13:56:47.135Z,395.48
2022-12-15T13:59:32.571Z,475.92
2022-12-15T14:02:01.932Z,420.33
2022-12-15T14:04:30.354Z,385.05
2022-12-15T14:07:01.703Z,406.10
2022-12-15T14:09:32.268Z,394.98
2022-12-15T14:12:03.965Z,369.33
2022-12-15T14:14:36.545Z,405.48
2022-12-15T14:17:10.216Z,360.10
2022-12-15T14:19:41.105Z,344.97
2022-12-15T14:22:27.660Z,367.00
2022-12-15T14:25:03.248Z,391.33
2022-12-15T14:27:35.593Z,399.27
2022-12-15T14:30:31.556Z,393.15
2022-12-15T14:33:35.777Z,395.92
2022-12-15T14:36:22.295Z,396.20
2022-12-15T14:38:53.676Z,426.58
2022-12-15T14:41:26.023Z,418.25
2022-12-15T14:46:48.536Z,357.33
2022-12-15T14:49:22.548Z,458.48
2022-12-15T14:51:54.757Z,395.52
2022-12-15T14:54:33.537Z,407.05
2022-12-15T14:57:03.220Z,364.63
2022-12-15T14:59:35.631Z,448.75
2022-12-15T15:02:14.080Z,479.63
2022-12-15T15:03:10.727Z,378.42
2022-12-15T15:03:15.496Z,353.48
2022-12-15T15:04:42.828Z,469.35
2022-12-15T15:07:19.330Z,452.35
2022-12-15T15:09:48.003Z,457.08
2022-12-15T15:12:18.626Z,469.92
2022-12-15T15:14:50.646Z,450.38
2022-12-15T15:17:24.756Z,429.95
2022-12-15T15:19:55.967Z,407.98
2022-12-15T15:22:36.971Z,360.52
2022-12-15T15:25:29.000Z,397.58
2022-12-15T15:28:16.941Z,407.02
2022-12-15T15:30:48.913Z,410.77
2022-12-15T15:33:19.626Z,443.58
2022-12-15T15:35:51.586Z,424.75
2022-12-15T15:38:23.185Z,473.40
2022-12-15T15:40:56.818Z,428.42
2022-12-15T15:43:27.493Z,402.67
2022-12-15T15:46:01.139Z,431.35
2022-12-15T15:48:34.013Z,409.17
2022-12-15T15:51:03.298Z,390.38
2022-12-15T15:53:34.001Z,389.85
2022-12-15T15:56:03.562Z,354.85
2022-12-15T15:58:32.577Z,391.02
2022-12-15T16:01:09.692Z,342.77
2022-12-15T16:03:42.383Z,395.95
2022-12-15T16:06:17.214Z,333.35
2022-12-15T16:08:46.456Z,399.95
2022-12-15T16:11:23.304Z,332.08
2022-12-15T16:13:53.245Z,303.02
2022-12-15T16:16:24.369Z,314.35
2022-12-15T16:18:53.288Z,285.42
2022-12-15T16:21:23.583Z,311.77
2022-12-15T16:23:52.142Z,318.60
2022-12-15T16:26:27.101Z,345.92
2022-12-15T16:28:55.804Z,358.85
2022-12-15T16:31:37.278Z,413.75
2022-12-15T16:36:38.518Z,462.58
2022-12-15T16:39:10.764Z,386.48
2022-12-15T16:41:39.346Z,385.25
2022-12-15T16:44:10.305Z,338.23
2022-12-15T16:46:40.127Z,368.95
2022-12-15T16:49:08.870Z,311.05
2022-12-15T16:51:41.006Z,479.60
2022-12-15T16:54:14.805Z,384.38
2022-12-15T16:56:43.463Z,394.73
2022-12-15T16:59:32.623Z,394.63
2022-12-15T17:02:04.478Z,425.85
2022-12-15T17:04:33.047Z,355.50
2022-12-15T17:07:01.750Z,361.38
2022-12-15T17:09:30.756Z,373.67
2022-12-15T17:12:00.172Z,406.15
2022-12-15T17:14:28.863Z,364.65
2022-12-15T17:16:57.558Z,401.40
2022-12-15T17:19:27.643Z,362.05
2022-12-15T17:21:56.319Z,367.90
2022-12-15T17:24:24.954Z,402.63
2022-12-15T17:26:53.632Z,395.13
2022-12-15T17:29:24.045Z,394.88
2022-12-15T17:31:53.057Z,411.67
2022-12-15T17:34:28.477Z,418.83
2022-12-15T17:36:57.698Z,413.25
2022-12-15T17:39:26.444Z,386.08
2022-12-15T17:42:00.440Z,398.17
2022-12-15T17:44:34.297Z,423.98
2022-12-15T17:47:04.517Z,399.35
2022-12-15T17:49:39.471Z,384.45
2022-12-15T17:52:16.589Z,395.42
2022-12-15T17:54:45.536Z,413.50
2022-12-15T17:57:17.042Z,404.52
2022-12-15T17:59:47.563Z,394.27
2022-12-15T18:02:16.285Z,366.80
2022-12-15T18:04:46.729Z,376.60
2022-12-15T18:07:30.298Z,365.88
2022-12-15T18:09:59.022Z,373.73
2022-12-15T18:12:29.111Z,344.17
2022-12-15T18:15:01.449Z,354.42
2022-12-15T18:17:33.488Z,356.50
2022-12-15T18:20:31.257Z,343.45
2022-12-15T18:23:02.366Z,347.52
2022-12-15T18:25:34.984Z,341.10
2022-12-15T18:28:03.848Z,328.33
2022-12-15T18:30:32.480Z,308.98
2022-12-15T18:33:02.848Z,322.00
2022-12-15T18:35:37.770Z,333.45
2022-12-15T18:38:19.305Z,294.42
2022-12-15T18:40:50.061Z,289.63
2022-12-15T18:43:20.714Z,304.67
2022-12-15T18:45:51.846Z,277.33
2022-12-15T18:50:58.596Z,346.05
2022-12-15T18:53:32.608Z,323.30
2022-12-15T18:56:02.681Z,334.65
2022-12-15T18:58:33.387Z,351.60
2022-12-15T19:01:03.761Z,353.00
2022-12-15T19:03:33.870Z,345.98
2022-12-15T19:06:11.240Z,320.85
2022-12-15T19:08:40.981Z,310.75
2022-12-15T19:11:15.070Z,269.20
2022-12-15T19:13:49.772Z,281.98
2022-12-15T19:16:22.301Z,291.55
2022-12-15T19:19:13.793Z,316.55
2022-12-15T19:22:05.448Z,337.77
2022-12-15T19:24:51.784Z,335.55
2022-12-15T19:27:23.456Z,339.65
2022-12-15T19:29:53.704Z,332.90
2022-12-15T19:32:26.067Z,341.02
2022-12-15T19:34:54.536Z,363.27
2022-12-15T19:37:27.833Z,342.33
2022-12-15T19:39:57.522Z,297.55
2022-12-15T19:42:29.634Z,332.85
2022-12-15T19:44:58.357Z,328.63
2022-12-15T19:47:37.100Z,357.63
2022-12-15T19:50:06.197Z,358.05
2022-12-15T19:52:36.681Z,334.40
2022-12-15T19:55:05.678Z,354.83
2022-12-15T19:57:34.206Z,336.13
2022-12-15T20:00:02.923Z,332.83
2022-12-15T20:02:31.550Z,329.33
2022-12-15T20:05:00.234Z,286.00
2022-12-15T20:07:31.061Z,337.77
2022-12-15T20:10:05.853Z,310.70
2022-12-15T20:12:34.485Z,343.67
2022-12-15T20:15:03.319Z,317.17
2022-12-15T20:17:34.057Z,315.52
2022-12-15T20:20:03.918Z,297.77
2022-12-15T20:22:33.743Z,308.90
2022-12-15T20:25:10.658Z,308.00
2022-12-15T20:27:40.080Z,332.45
2022-12-15T20:30:14.918Z,287.83
2022-12-15T20:32:44.605Z,325.92
2022-12-15T20:35:16.914Z,339.73
2022-12-15T20:37:48.001Z,315.60
2022-12-15T20:40:25.198Z,315.88
2022-12-15T20:42:54.652Z,320.38
2022-12-15T20:45:24.939Z,328.25
2022-12-15T20:47:57.886Z,278.50
2022-12-15T20:50:34.945Z,328.65
2022-12-15T20:53:03.683Z,467.35
2022-12-15T20:55:33.522Z,370.60
2022-12-15T20:58:01.950Z,327.27
2022-12-15T21:00:30.586Z,309.42
2022-12-15T21:03:02.220Z,379.75
2022-12-15T21:05:31.583Z,369.40
2022-12-15T21:08:01.795Z,353.23
2022-12-15T21:10:30.377Z,344.40
2022-12-15T21:13:00.461Z,357.80
2022-12-15T21:15:28.999Z,353.70
2022-12-15T21:18:25.974Z,347.40
2022-12-15T21:20:49.320Z,366.10
2022-12-15T21:23:23.128Z,339.30
2022-12-15T21:25:52.390Z,341.63
2022-12-15T21:28:24.117Z,371.33
2022-12-15T21:30:53.093Z,364.70
2022-12-15T21:33:21.820Z,347.40
2022-12-15T21:35:50.979Z,348.60
2022-12-15T21:38:33.556Z,339.80
2022-12-15T21:41:04.303Z,312.83
2022-12-15T21:43:35.943Z,321.73
2022-12-15T21:46:11.751Z,322.45
2022-12-15T21:48:57.784Z,317.42
2022-12-15T21:51:26.491Z,322.88
2022-12-15T21:53:55.118Z,349.05
2022-12-15T21:56:23.877Z,271.35
2022-12-15T21:58:54.858Z,266.10
2022-12-15T22:01:25.236Z,297.27
2022-12-15T22:03:55.379Z,302.05
2022-12-15T22:06:26.100Z,333.90
2022-12-15T22:08:55.415Z,312.45
2022-12-15T22:11:25.077Z,336.48
2022-12-15T22:13:56.672Z,300.95
2022-12-15T22:16:25.762Z,337.38
2022-12-15T22:18:56.807Z,280.27
2022-12-15T22:21:30.998Z,324.20
2022-12-15T22:23:59.481Z,315.20
2022-12-15T22:26:30.208Z,306.73
2022-12-15T22:29:01.934Z,327.50
2022-12-15T22:31:30.865Z,330.85
2022-12-15T22:33:59.618Z,328.07
2022-12-15T22:36:28.161Z,326.17
2022-12-15T22:38:56.579Z,319.25
2022-12-15T22:41:25.696Z,319.13
2022-12-15T22:43:55.374Z,361.10
2022-12-15T22:46:26.313Z,313.87
2022-12-15T22:48:54.994Z,335.23
2022-12-15T22:51:23.615Z,346.70
2022-12-15T22:53:52.146Z,336.67
2022-12-15T22:56:25.994Z,310.17
2022-12-15T22:58:59.260Z,355.58
2022-12-15T23:01:29.886Z,327.13
2022-12-15T23:03:58.731Z,319.47
2022-12-15T23:06:28.351Z,305.10
2022-12-15T23:08:56.774Z,375.37
2022-12-15T23:11:39.507Z,328.03
2022-12-15T23:14:10.687Z,331.40
2022-12-15T23:16:39.798Z,292.27
2022-12-15T23:19:08.917Z,348.50
2022-12-15T23:21:37.869Z,350.27
2022-12-15T23:24:06.663Z,352.83
2022-12-15T23:26:35.286Z,375.13
2022-12-15T23:29:03.855Z,367.63
2022-12-15T23:31:32.669Z,348.57
2022-12-15T23:34:02.531Z,360.47
2022-12-15T23:36:31.041Z,388.47
2022-12-15T23:38:59.684Z,375.10
2022-12-15T23:41:29.349Z,390.40
2022-12-15T23:43:57.972Z,375.53
2022-12-15T23:46:26.906Z,400.27
2022-12-15T23:48:55.534Z,341.23
2022-12-15T23:51:25.642Z,328.27
2022-12-15T23:53:54.722Z,324.33
2022-12-15T23:56:25.110Z,329.43
2022-12-15T23:58:57.005Z,353.70
